sensor_id;sensor_type;location;lat;lon;timestamp;temperature;humidity
12907;DHT22;6521;50.498;8.474;2023-02-01T00:00:04;3.48;95.23
12907;DHT22;6521;50.498;8.474;2023-02-01T00:02:35;3.51;95.41
12907;DHT22;6521;50.498;8.474;2023-02-01T00:05:10;3.54;95.38
12907;DHT22;6521;50.498;8.474;2023-02-01T00:07:41;3.54;95.40
12907;DHT22;6521;50.498;8.474;2023-02-01T00:10:12;3.60;95.35
12907;DHT22;6521;50.498;8.474;2023-02-01T00:12:44;3.60;95.45
12907;DHT22;6521;50.498;8.474;2023-02-01T00:15:15;3.64;95.40
12907;DHT22;6521;50.498;8.474;2023-02-01T00:17:46;3.66;95.45
12907;DHT22;6521;50.498;8.474;2023-02-01T00:20:17;3.68;95.26
12907;DHT22;6521;50.498;8.474;2023-02-01T00:22:48;3.71;95.36
12907;DHT22;6521;50.498;8.474;2023-02-01T00:25:19;3.84;95.10
12907;DHT22;6521;50.498;8.474;2023-02-01T00:27:49;3.77;95.06
12907;DHT22;6521;50.498;8.474;2023-02-01T00:30:21;3.81;94.99
12907;DHT22;6521;50.498;8.474;2023-02-01T00:32:52;3.88;94.79
12907;DHT22;6521;50.498;8.474;2023-02-01T00:35:22;3.85;94.70
12907;DHT22;6521;50.498;8.474;2023-02-01T00:37:53;3.84;94.81
12907;DHT22;6521;50.498;8.474;2023-02-01T00:40:24;3.81;94.77
12907;DHT22;6521;50.498;8.474;2023-02-01T00:42:55;3.85;94.65
12907;DHT22;6521;50.498;8.474;2023-02-01T00:45:27;3.85;94.89
12907;DHT22;6521;50.498;8.474;2023-02-01T00:47:58;3.85;94.80
12907;DHT22;6521;50.498;8.474;2023-02-01T00:50:29;3.89;94.77
12907;DHT22;6521;50.498;8.474;2023-02-01T00:53:00;3.92;94.81
12907;DHT22;6521;50.498;8.474;2023-02-01T00:55:31;3.91;94.81
12907;DHT22;6521;50.498;8.474;2023-02-01T00:58:02;3.92;94.75
12907;DHT22;6521;50.498;8.474;2023-02-01T01:00:32;4.01;94.74
12907;DHT22;6521;50.498;8.474;2023-02-01T01:03:03;3.99;94.65
12907;DHT22;6521;50.498;8.474;2023-02-01T01:05:48;3.94;94.80
12907;DHT22;6521;50.498;8.474;2023-02-01T01:08:19;3.95;94.82
12907;DHT22;6521;50.498;8.474;2023-02-01T01:10:50;3.98;94.88
12907;DHT22;6521;50.498;8.474;2023-02-01T01:13:21;4.01;94.74
12907;DHT22;6521;50.498;8.474;2023-02-01T01:15:53;4.06;94.75
12907;DHT22;6521;50.498;8.474;2023-02-01T01:18:24;4.08;94.70
12907;DHT22;6521;50.498;8.474;2023-02-01T01:20:55;4.12;94.50
12907;DHT22;6521;50.498;8.474;2023-02-01T01:23:26;4.10;94.58
12907;DHT22;6521;50.498;8.474;2023-02-01T01:25:57;4.05;94.69
12907;DHT22;6521;50.498;8.474;2023-02-01T01:28:28;4.12;94.61
12907;DHT22;6521;50.498;8.474;2023-02-01T01:30:59;4.13;94.64
12907;DHT22;6521;50.498;8.474;2023-02-01T01:33:29;4.09;94.56
12907;DHT22;6521;50.498;8.474;2023-02-01T01:36:00;4.15;94.42
12907;DHT22;6521;50.498;8.474;2023-02-01T01:38:31;4.18;94.49
12907;DHT22;6521;50.498;8.474;2023-02-01T01:41:03;4.13;94.51
12907;DHT22;6521;50.498;8.474;2023-02-01T01:46:22;4.16;94.28
12907;DHT22;6521;50.498;8.474;2023-02-01T01:51:51;4.16;94.31
12907;DHT22;6521;50.498;8.474;2023-02-01T01:54:31;4.20;94.21
12907;DHT22;6521;50.498;8.474;2023-02-01T01:57:07;4.18;94.21
12907;DHT22;6521;50.498;8.474;2023-02-01T01:59:44;4.18;94.16
12907;DHT22;6521;50.498;8.474;2023-02-01T02:02:17;4.18;94.07
12907;DHT22;6521;50.498;8.474;2023-02-01T02:04:48;4.16;94.07
12907;DHT22;6521;50.498;8.474;2023-02-01T02:07:23;4.16;93.92
12907;DHT22;6521;50.498;8.474;2023-02-01T02:09:55;4.16;93.89
12907;DHT22;6521;50.498;8.474;2023-02-01T02:12:27;4.18;93.88
12907;DHT22;6521;50.498;8.474;2023-02-01T02:14:59;4.16;93.76
12907;DHT22;6521;50.498;8.474;2023-02-01T02:20:35;4.16;93.76
12907;DHT22;6521;50.498;8.474;2023-02-01T02:23:37;4.19;93.88
12907;DHT22;6521;50.498;8.474;2023-02-01T02:26:23;4.19;93.76
12907;DHT22;6521;50.498;8.474;2023-02-01T02:29:34;4.20;93.66
12907;DHT22;6521;50.498;8.474;2023-02-01T02:32:28;4.20;93.54
12907;DHT22;6521;50.498;8.474;2023-02-01T02:35:16;4.19;93.61
12907;DHT22;6521;50.498;8.474;2023-02-01T02:37:53;4.20;93.36
12907;DHT22;6521;50.498;8.474;2023-02-01T02:40:34;4.19;93.36
12907;DHT22;6521;50.498;8.474;2023-02-01T02:49:12;4.20;93.01
12907;DHT22;6521;50.498;8.474;2023-02-01T02:51:53;4.20;92.95
12907;DHT22;6521;50.498;8.474;2023-02-01T02:54:47;4.20;92.70
12907;DHT22;6521;50.498;8.474;2023-02-01T03:00:28;4.15;92.28
12907;DHT22;6521;50.498;8.474;2023-02-01T03:03:18;4.20;91.51
12907;DHT22;6521;50.498;8.474;2023-02-01T03:06:16;4.25;90.81
12907;DHT22;6521;50.498;8.474;2023-02-01T03:08:49;4.28;90.56
12907;DHT22;6521;50.498;8.474;2023-02-01T03:11:24;4.20;90.36
12907;DHT22;6521;50.498;8.474;2023-02-01T03:14:15;4.22;90.18
12907;DHT22;6521;50.498;8.474;2023-02-01T03:16:51;4.26;89.83
12907;DHT22;6521;50.498;8.474;2023-02-01T03:19:34;4.26;89.81
12907;DHT22;6521;50.498;8.474;2023-02-01T03:22:08;4.23;89.77
12907;DHT22;6521;50.498;8.474;2023-02-01T03:24:56;4.22;89.84
12907;DHT22;6521;50.498;8.474;2023-02-01T03:27:49;4.23;89.76
12907;DHT22;6521;50.498;8.474;2023-02-01T03:30:24;4.19;89.68
12907;DHT22;6521;50.498;8.474;2023-02-01T03:33:00;4.15;89.73
12907;DHT22;6521;50.498;8.474;2023-02-01T03:35:44;4.19;89.58
12907;DHT22;6521;50.498;8.474;2023-02-01T03:38:41;4.13;89.70
12907;DHT22;6521;50.498;8.474;2023-02-01T03:41:27;4.18;89.65
12907;DHT22;6521;50.498;8.474;2023-02-01T03:44:06;4.12;89.70
12907;DHT22;6521;50.498;8.474;2023-02-01T03:46:49;4.16;89.44
12907;DHT22;6521;50.498;8.474;2023-02-01T03:49:27;4.12;89.51
12907;DHT22;6521;50.498;8.474;2023-02-01T03:51:59;4.20;89.02
12907;DHT22;6521;50.498;8.474;2023-02-01T03:54:31;4.20;88.62
12907;DHT22;6521;50.498;8.474;2023-02-01T03:57:08;4.22;88.60
12907;DHT22;6521;50.498;8.474;2023-02-01T03:59:41;4.22;88.54
12907;DHT22;6521;50.498;8.474;2023-02-01T04:02:13;4.19;88.58
12907;DHT22;6521;50.498;8.474;2023-02-01T04:04:43;4.19;88.38
12907;DHT22;6521;50.498;8.474;2023-02-01T04:07:19;4.18;88.26
12907;DHT22;6521;50.498;8.474;2023-02-01T04:09:50;4.20;88.05
12907;DHT22;6521;50.498;8.474;2023-02-01T04:12:21;4.23;87.89
12907;DHT22;6521;50.498;8.474;2023-02-01T04:14:51;4.22;88.08
12907;DHT22;6521;50.498;8.474;2023-02-01T04:17:22;4.18;88.26
12907;DHT22;6521;50.498;8.474;2023-02-01T04:19:53;4.16;88.27
12907;DHT22;6521;50.498;8.474;2023-02-01T04:22:24;4.18;88.12
12907;DHT22;6521;50.498;8.474;2023-02-01T04:24:55;4.23;87.85
12907;DHT22;6521;50.498;8.474;2023-02-01T04:27:26;4.19;87.92
12907;DHT22;6521;50.498;8.474;2023-02-01T04:29:57;4.22;87.91
12907;DHT22;6521;50.498;8.474;2023-02-01T04:32:27;4.18;88.00
12907;DHT22;6521;50.498;8.474;2023-02-01T04:34:58;4.22;87.94
12907;DHT22;6521;50.498;8.474;2023-02-01T04:37:29;4.22;87.96
12907;DHT22;6521;50.498;8.474;2023-02-01T04:40:00;4.25;87.77
12907;DHT22;6521;50.498;8.474;2023-02-01T04:42:32;4.23;87.87
12907;DHT22;6521;50.498;8.474;2023-02-01T04:45:03;4.23;87.92
12907;DHT22;6521;50.498;8.474;2023-02-01T04:47:34;4.19;88.07
12907;DHT22;6521;50.498;8.474;2023-02-01T04:50:05;4.19;88.13
12907;DHT22;6521;50.498;8.474;2023-02-01T04:52:37;4.22;87.95
12907;DHT22;6521;50.498;8.474;2023-02-01T04:55:08;4.23;87.90
12907;DHT22;6521;50.498;8.474;2023-02-01T04:57:39;4.25;88.03
12907;DHT22;6521;50.498;8.474;2023-02-01T05:00:11;4.26;88.02
12907;DHT22;6521;50.498;8.474;2023-02-01T05:02:43;4.23;87.87
12907;DHT22;6521;50.498;8.474;2023-02-01T05:05:14;4.28;87.91
12907;DHT22;6521;50.498;8.474;2023-02-01T05:07:46;4.33;87.82
12907;DHT22;6521;50.498;8.474;2023-02-01T05:10:17;4.33;87.77
12907;DHT22;6521;50.498;8.474;2023-02-01T05:12:48;4.33;87.70
12907;DHT22;6521;50.498;8.474;2023-02-01T05:15:37;4.35;87.71
12907;DHT22;6521;50.498;8.474;2023-02-01T05:18:07;4.33;87.68
12907;DHT22;6521;50.498;8.474;2023-02-01T05:20:38;4.35;87.55
12907;DHT22;6521;50.498;8.474;2023-02-01T05:23:09;4.30;87.54
12907;DHT22;6521;50.498;8.474;2023-02-01T05:25:40;4.26;87.57
12907;DHT22;6521;50.498;8.474;2023-02-01T05:28:11;4.28;87.59
12907;DHT22;6521;50.498;8.474;2023-02-01T05:30:41;4.25;87.63
12907;DHT22;6521;50.498;8.474;2023-02-01T05:33:12;4.23;87.54
12907;DHT22;6521;50.498;8.474;2023-02-01T05:35:43;4.19;87.54
12907;DHT22;6521;50.498;8.474;2023-02-01T05:38:14;4.20;87.46
12907;DHT22;6521;50.498;8.474;2023-02-01T05:40:44;4.22;87.56
12907;DHT22;6521;50.498;8.474;2023-02-01T05:43:19;4.19;87.49
12907;DHT22;6521;50.498;8.474;2023-02-01T05:45:53;4.18;87.48
12907;DHT22;6521;50.498;8.474;2023-02-01T05:48:24;4.13;87.59
12907;DHT22;6521;50.498;8.474;2023-02-01T05:50:55;4.13;87.55
12907;DHT22;6521;50.498;8.474;2023-02-01T05:53:26;4.15;87.34
12907;DHT22;6521;50.498;8.474;2023-02-01T05:55:56;4.15;87.33
12907;DHT22;6521;50.498;8.474;2023-02-01T05:58:27;4.10;87.31
12907;DHT22;6521;50.498;8.474;2023-02-01T06:01:02;4.09;87.28
12907;DHT22;6521;50.498;8.474;2023-02-01T06:03:33;4.12;87.10
12907;DHT22;6521;50.498;8.474;2023-02-01T06:06:04;4.12;87.09
12907;DHT22;6521;50.498;8.474;2023-02-01T06:08:35;4.06;87.05
12907;DHT22;6521;50.498;8.474;2023-02-01T06:11:07;4.03;87.06
12907;DHT22;6521;50.498;8.474;2023-02-01T06:13:38;4.08;86.90
12907;DHT22;6521;50.498;8.474;2023-02-01T06:16:09;4.05;86.65
12907;DHT22;6521;50.498;8.474;2023-02-01T06:18:40;4.08;86.63
12907;DHT22;6521;50.498;8.474;2023-02-01T06:21:12;4.05;86.69
12907;DHT22;6521;50.498;8.474;2023-02-01T06:23:44;4.08;86.47
12907;DHT22;6521;50.498;8.474;2023-02-01T06:26:15;4.09;86.48
12907;DHT22;6521;50.498;8.474;2023-02-01T06:28:49;4.10;86.28
12907;DHT22;6521;50.498;8.474;2023-02-01T06:31:19;4.13;85.99
12907;DHT22;6521;50.498;8.474;2023-02-01T06:33:51;4.15;85.86
12907;DHT22;6521;50.498;8.474;2023-02-01T06:36:22;4.18;85.62
12907;DHT22;6521;50.498;8.474;2023-02-01T06:38:53;4.15;85.92
12907;DHT22;6521;50.498;8.474;2023-02-01T06:41:24;4.13;85.80
12907;DHT22;6521;50.498;8.474;2023-02-01T06:43:55;4.13;85.95
12907;DHT22;6521;50.498;8.474;2023-02-01T06:46:26;4.15;85.95
12907;DHT22;6521;50.498;8.474;2023-02-01T06:48:57;4.18;85.98
12907;DHT22;6521;50.498;8.474;2023-02-01T06:51:28;4.15;85.83
12907;DHT22;6521;50.498;8.474;2023-02-01T06:54:00;4.16;85.79
12907;DHT22;6521;50.498;8.474;2023-02-01T06:56:31;4.19;85.49
12907;DHT22;6521;50.498;8.474;2023-02-01T06:59:09;4.16;85.62
12907;DHT22;6521;50.498;8.474;2023-02-01T07:01:40;4.15;85.49
12907;DHT22;6521;50.498;8.474;2023-02-01T07:04:12;4.16;85.18
12907;DHT22;6521;50.498;8.474;2023-02-01T07:06:43;4.19;85.16
12907;DHT22;6521;50.498;8.474;2023-02-01T07:09:13;4.16;85.34
12907;DHT22;6521;50.498;8.474;2023-02-01T07:11:44;4.18;85.24
12907;DHT22;6521;50.498;8.474;2023-02-01T07:14:15;4.16;85.10
12907;DHT22;6521;50.498;8.474;2023-02-01T07:16:46;4.18;85.00
12907;DHT22;6521;50.498;8.474;2023-02-01T07:19:16;4.22;84.68
12907;DHT22;6521;50.498;8.474;2023-02-01T07:21:47;4.28;84.21
12907;DHT22;6521;50.498;8.474;2023-02-01T07:24:18;4.29;83.90
12907;DHT22;6521;50.498;8.474;2023-02-01T07:26:49;4.26;84.13
12907;DHT22;6521;50.498;8.474;2023-02-01T07:29:21;4.28;84.12
12907;DHT22;6521;50.498;8.474;2023-02-01T07:31:52;4.30;83.55
12907;DHT22;6521;50.498;8.474;2023-02-01T07:34:23;4.30;83.38
12907;DHT22;6521;50.498;8.474;2023-02-01T07:36:54;4.33;82.96
12907;DHT22;6521;50.498;8.474;2023-02-01T07:39:25;4.37;82.76
12907;DHT22;6521;50.498;8.474;2023-02-01T07:41:58;4.37;82.67
12907;DHT22;6521;50.498;8.474;2023-02-01T07:44:29;4.40;82.92
12907;DHT22;6521;50.498;8.474;2023-02-01T07:47:00;4.40;82.31
12907;DHT22;6521;50.498;8.474;2023-02-01T07:49:31;4.45;82.38
12907;DHT22;6521;50.498;8.474;2023-02-01T07:52:01;4.37;82.46
12907;DHT22;6521;50.498;8.474;2023-02-01T07:54:32;4.42;82.32
12907;DHT22;6521;50.498;8.474;2023-02-01T07:57:03;4.42;82.29
12907;DHT22;6521;50.498;8.474;2023-02-01T07:59:34;4.39;82.53
12907;DHT22;6521;50.498;8.474;2023-02-01T08:02:05;4.40;82.24
12907;DHT22;6521;50.498;8.474;2023-02-01T08:04:36;4.45;82.21
12907;DHT22;6521;50.498;8.474;2023-02-01T08:07:07;4.42;82.44
12907;DHT22;6521;50.498;8.474;2023-02-01T08:09:38;4.39;82.29
12907;DHT22;6521;50.498;8.474;2023-02-01T08:12:09;4.39;82.84
12907;DHT22;6521;50.498;8.474;2023-02-01T08:14:40;4.45;82.36
12907;DHT22;6521;50.498;8.474;2023-02-01T08:17:11;4.46;82.04
12907;DHT22;6521;50.498;8.474;2023-02-01T08:19:42;4.49;82.23
12907;DHT22;6521;50.498;8.474;2023-02-01T08:22:13;4.49;81.84
12907;DHT22;6521;50.498;8.474;2023-02-01T08:24:44;4.47;82.15
12907;DHT22;6521;50.498;8.474;2023-02-01T08:27:15;4.45;82.06
12907;DHT22;6521;50.498;8.474;2023-02-01T08:29:45;4.46;82.25
12907;DHT22;6521;50.498;8.474;2023-02-01T08:32:16;4.45;82.00
12907;DHT22;6521;50.498;8.474;2023-02-01T08:34:47;4.43;82.21
12907;DHT22;6521;50.498;8.474;2023-02-01T08:37:18;4.50;82.05
12907;DHT22;6521;50.498;8.474;2023-02-01T08:39:49;4.43;82.26
12907;DHT22;6521;50.498;8.474;2023-02-01T08:42:21;4.47;82.04
12907;DHT22;6521;50.498;8.474;2023-02-01T08:45:10;4.45;82.29
12907;DHT22;6521;50.498;8.474;2023-02-01T08:47:41;4.47;82.35
12907;DHT22;6521;50.498;8.474;2023-02-01T08:50:13;4.46;82.52
12907;DHT22;6521;50.498;8.474;2023-02-01T08:52:44;4.45;82.54
12907;DHT22;6521;50.498;8.474;2023-02-01T08:55:15;4.45;82.45
12907;DHT22;6521;50.498;8.474;2023-02-01T08:57:46;4.37;82.90
12907;DHT22;6521;50.498;8.474;2023-02-01T09:00:17;4.45;82.53
12907;DHT22;6521;50.498;8.474;2023-02-01T09:02:48;4.43;82.30
12907;DHT22;6521;50.498;8.474;2023-02-01T09:05:19;4.45;82.36
12907;DHT22;6521;50.498;8.474;2023-02-01T09:07:53;4.43;82.40
12907;DHT22;6521;50.498;8.474;2023-02-01T09:10:23;4.45;82.23
12907;DHT22;6521;50.498;8.474;2023-02-01T09:12:54;4.42;82.30
12907;DHT22;6521;50.498;8.474;2023-02-01T09:15:25;4.43;82.62
12907;DHT22;6521;50.498;8.474;2023-02-01T09:17:56;4.45;82.71
12907;DHT22;6521;50.498;8.474;2023-02-01T09:20:27;4.52;82.80
12907;DHT22;6521;50.498;8.474;2023-02-01T09:22:58;4.46;82.22
12907;DHT22;6521;50.498;8.474;2023-02-01T09:25:29;4.47;82.47
12907;DHT22;6521;50.498;8.474;2023-02-01T09:27:59;4.45;82.98
12907;DHT22;6521;50.498;8.474;2023-02-01T09:30:30;4.47;82.49
12907;DHT22;6521;50.498;8.474;2023-02-01T09:33:01;4.46;82.72
12907;DHT22;6521;50.498;8.474;2023-02-01T09:35:32;4.43;82.94
12907;DHT22;6521;50.498;8.474;2023-02-01T09:38:03;4.46;82.77
12907;DHT22;6521;50.498;8.474;2023-02-01T09:40:35;4.52;82.64
12907;DHT22;6521;50.498;8.474;2023-02-01T09:46:21;4.50;82.57
12907;DHT22;6521;50.498;8.474;2023-02-01T09:48:55;4.54;82.72
12907;DHT22;6521;50.498;8.474;2023-02-01T09:51:36;4.61;82.52
12907;DHT22;6521;50.498;8.474;2023-02-01T09:54:33;4.58;82.77
12907;DHT22;6521;50.498;8.474;2023-02-01T09:57:12;4.64;82.05
12907;DHT22;6521;50.498;8.474;2023-02-01T09:59:50;4.66;82.34
12907;DHT22;6521;50.498;8.474;2023-02-01T10:02:25;4.68;82.22
12907;DHT22;6521;50.498;8.474;2023-02-01T10:04:59;4.73;81.99
12907;DHT22;6521;50.498;8.474;2023-02-01T10:07:54;4.77;81.51
12907;DHT22;6521;50.498;8.474;2023-02-01T10:10:56;4.76;81.64
12907;DHT22;6521;50.498;8.474;2023-02-01T10:19:44;4.73;81.64
12907;DHT22;6521;50.498;8.474;2023-02-01T10:25:08;4.71;81.72
12907;DHT22;6521;50.498;8.474;2023-02-01T10:27:42;4.67;81.90
12907;DHT22;6521;50.498;8.474;2023-02-01T10:30:18;4.68;81.97
12907;DHT22;6521;50.498;8.474;2023-02-01T10:33:07;4.74;82.06
12907;DHT22;6521;50.498;8.474;2023-02-01T10:35:44;4.71;81.62
12907;DHT22;6521;50.498;8.474;2023-02-01T10:38:27;4.70;81.68
12907;DHT22;6521;50.498;8.474;2023-02-01T10:41:12;4.78;81.35
12907;DHT22;6521;50.498;8.474;2023-02-01T10:43:45;4.83;81.32
12907;DHT22;6521;50.498;8.474;2023-02-01T10:46:18;4.87;81.38
12907;DHT22;6521;50.498;8.474;2023-02-01T10:48:50;4.88;81.20
12907;DHT22;6521;50.498;8.474;2023-02-01T10:51:42;4.88;80.95
12907;DHT22;6521;50.498;8.474;2023-02-01T10:54:21;4.89;81.23
12907;DHT22;6521;50.498;8.474;2023-02-01T10:56:52;4.94;80.81
12907;DHT22;6521;50.498;8.474;2023-02-01T10:59:25;4.91;80.78
12907;DHT22;6521;50.498;8.474;2023-02-01T11:01:59;4.89;81.17
12907;DHT22;6521;50.498;8.474;2023-02-01T11:04:34;4.87;81.18
12907;DHT22;6521;50.498;8.474;2023-02-01T11:07:13;4.89;81.34
12907;DHT22;6521;50.498;8.474;2023-02-01T11:09:54;4.92;80.79
12907;DHT22;6521;50.498;8.474;2023-02-01T11:12:32;4.92;80.58
12907;DHT22;6521;50.498;8.474;2023-02-01T11:15:14;4.97;80.46
12907;DHT22;6521;50.498;8.474;2023-02-01T11:17:50;5.01;80.05
12907;DHT22;6521;50.498;8.474;2023-02-01T11:20:38;4.99;80.09
12907;DHT22;6521;50.498;8.474;2023-02-01T11:23:19;5.01;80.31
12907;DHT22;6521;50.498;8.474;2023-02-01T11:25:56;5.07;79.63
12907;DHT22;6521;50.498;8.474;2023-02-01T11:28:32;5.11;79.40
12907;DHT22;6521;50.498;8.474;2023-02-01T11:31:08;5.14;79.47
12907;DHT22;6521;50.498;8.474;2023-02-01T11:33:49;5.18;79.60
12907;DHT22;6521;50.498;8.474;2023-02-01T11:36:24;5.22;79.13
12907;DHT22;6521;50.498;8.474;2023-02-01T11:39:23;5.26;79.38
12907;DHT22;6521;50.498;8.474;2023-02-01T11:42:16;5.22;79.78
12907;DHT22;6521;50.498;8.474;2023-02-01T11:44:47;5.28;79.54
12907;DHT22;6521;50.498;8.474;2023-02-01T11:47:23;5.31;79.22
12907;DHT22;6521;50.498;8.474;2023-02-01T11:50:12;5.28;79.77
12907;DHT22;6521;50.498;8.474;2023-02-01T11:52:50;5.31;78.96
12907;DHT22;6521;50.498;8.474;2023-02-01T12:06:54;5.66;78.86
12907;DHT22;6521;50.498;8.474;2023-02-01T12:12:32;6.05;77.63
12907;DHT22;6521;50.498;8.474;2023-02-01T12:15:15;6.29;76.86
12907;DHT22;6521;50.498;8.474;2023-02-01T12:18:00;6.44;76.82
12907;DHT22;6521;50.498;8.474;2023-02-01T12:28:58;6.00;76.87
12907;DHT22;6521;50.498;8.474;2023-02-01T12:40:42;5.87;76.82
12907;DHT22;6521;50.498;8.474;2023-02-01T12:43:19;5.74;76.73
12907;DHT22;6521;50.498;8.474;2023-02-01T12:45:56;5.74;77.43
12907;DHT22;6521;50.498;8.474;2023-02-01T12:48:36;5.81;77.20
12907;DHT22;6521;50.498;8.474;2023-02-01T12:51:18;5.89;77.02
12907;DHT22;6521;50.498;8.474;2023-02-01T12:54:37;6.13;76.66
12907;DHT22;6521;50.498;8.474;2023-02-01T12:57:13;6.18;75.47
12907;DHT22;6521;50.498;8.474;2023-02-01T12:59:59;6.21;75.51
12907;DHT22;6521;50.498;8.474;2023-02-01T13:02:44;6.21;75.80
12907;DHT22;6521;50.498;8.474;2023-02-01T13:05:18;6.20;75.24
12907;DHT22;6521;50.498;8.474;2023-02-01T13:11:11;6.01;75.51
12907;DHT22;6521;50.498;8.474;2023-02-01T13:14:01;6.00;75.96
12907;DHT22;6521;50.498;8.474;2023-02-01T13:16:40;5.95;75.72
12907;DHT22;6521;50.498;8.474;2023-02-01T13:19:28;5.98;75.32
12907;DHT22;6521;50.498;8.474;2023-02-01T13:22:09;6.05;75.71
12907;DHT22;6521;50.498;8.474;2023-02-01T13:24:48;6.08;75.29
12907;DHT22;6521;50.498;8.474;2023-02-01T13:27:20;6.13;75.64
12907;DHT22;6521;50.498;8.474;2023-02-01T13:30:25;6.22;74.99
12907;DHT22;6521;50.498;8.474;2023-02-01T13:41:24;6.52;74.42
12907;DHT22;6521;50.498;8.474;2023-02-01T13:44:13;6.52;73.83
12907;DHT22;6521;50.498;8.474;2023-02-01T13:46:46;6.53;73.99
12907;DHT22;6521;50.498;8.474;2023-02-01T13:49:20;6.44;73.96
12907;DHT22;6521;50.498;8.474;2023-02-01T13:51:55;6.36;74.27
12907;DHT22;6521;50.498;8.474;2023-02-01T13:54:30;6.31;74.49
12907;DHT22;6521;50.498;8.474;2023-02-01T13:57:03;6.28;74.69
12907;DHT22;6521;50.498;8.474;2023-02-01T14:21:30;6.03;75.61
12907;DHT22;6521;50.498;8.474;2023-02-01T14:32:13;6.18;75.79
12907;DHT22;6521;50.498;8.474;2023-02-01T14:42:47;6.05;77.19
12907;DHT22;6521;50.498;8.474;2023-02-01T14:50:40;5.95;78.04
12907;DHT22;6521;50.498;8.474;2023-02-01T14:58:43;5.73;79.71
12907;DHT22;6521;50.498;8.474;2023-02-01T15:04:11;5.57;80.87
12907;DHT22;6521;50.498;8.474;2023-02-01T15:07:07;5.49;81.80
12907;DHT22;6521;50.498;8.474;2023-02-01T15:09:43;5.43;82.46
12907;DHT22;6521;50.498;8.474;2023-02-01T15:12:17;5.34;82.83
12907;DHT22;6521;50.498;8.474;2023-02-01T15:17:34;5.16;84.21
12907;DHT22;6521;50.498;8.474;2023-02-01T15:25:36;4.97;85.38
12907;DHT22;6521;50.498;8.474;2023-02-01T15:28:13;4.94;85.44
12907;DHT22;6521;50.498;8.474;2023-02-01T15:31:01;4.91;85.76
12907;DHT22;6521;50.498;8.474;2023-02-01T15:33:32;4.91;86.15
12907;DHT22;6521;50.498;8.474;2023-02-01T15:36:09;4.87;86.42
12907;DHT22;6521;50.498;8.474;2023-02-01T15:38:43;4.85;86.77
12907;DHT22;6521;50.498;8.474;2023-02-01T15:41:16;4.81;87.14
12907;DHT22;6521;50.498;8.474;2023-02-01T15:46:31;4.74;87.55
12907;DHT22;6521;50.498;8.474;2023-02-01T15:49:03;4.76;87.60
12907;DHT22;6521;50.498;8.474;2023-02-01T15:51:34;4.74;87.65
12907;DHT22;6521;50.498;8.474;2023-02-01T15:54:07;4.80;87.32
12907;DHT22;6521;50.498;8.474;2023-02-01T15:56:40;4.83;86.71
12907;DHT22;6521;50.498;8.474;2023-02-01T15:59:15;4.84;86.61
12907;DHT22;6521;50.498;8.474;2023-02-01T16:01:47;4.88;86.21
12907;DHT22;6521;50.498;8.474;2023-02-01T16:04:24;4.91;85.88
12907;DHT22;6521;50.498;8.474;2023-02-01T16:07:01;4.91;85.97
12907;DHT22;6521;50.498;8.474;2023-02-01T16:09:50;4.89;85.72
12907;DHT22;6521;50.498;8.474;2023-02-01T16:15:09;4.99;85.17
12907;DHT22;6521;50.498;8.474;2023-02-01T16:17:40;4.99;85.18
12907;DHT22;6521;50.498;8.474;2023-02-01T16:20:11;5.01;85.02
12907;DHT22;6521;50.498;8.474;2023-02-01T16:22:44;5.01;84.75
12907;DHT22;6521;50.498;8.474;2023-02-01T16:25:15;5.07;84.63
12907;DHT22;6521;50.498;8.474;2023-02-01T16:27:46;5.07;84.65
12907;DHT22;6521;50.498;8.474;2023-02-01T16:30:17;5.07;84.31
12907;DHT22;6521;50.498;8.474;2023-02-01T16:32:55;5.11;84.23
12907;DHT22;6521;50.498;8.474;2023-02-01T16:35:34;5.12;84.49
12907;DHT22;6521;50.498;8.474;2023-02-01T16:38:11;5.11;84.31
12907;DHT22;6521;50.498;8.474;2023-02-01T16:40:44;5.16;83.86
12907;DHT22;6521;50.498;8.474;2023-02-01T16:43:20;5.26;83.60
12907;DHT22;6521;50.498;8.474;2023-02-01T16:45:53;5.25;83.70
12907;DHT22;6521;50.498;8.474;2023-02-01T16:48:35;5.21;83.96
12907;DHT22;6521;50.498;8.474;2023-02-01T16:51:12;5.25;83.44
12907;DHT22;6521;50.498;8.474;2023-02-01T16:53:44;5.26;83.29
12907;DHT22;6521;50.498;8.474;2023-02-01T16:56:21;5.29;83.15
12907;DHT22;6521;50.498;8.474;2023-02-01T16:58:52;5.40;83.00
12907;DHT22;6521;50.498;8.474;2023-02-01T17:01:25;5.32;83.38
12907;DHT22;6521;50.498;8.474;2023-02-01T17:03:56;5.36;83.47
12907;DHT22;6521;50.498;8.474;2023-02-01T17:06:27;5.38;83.89
12907;DHT22;6521;50.498;8.474;2023-02-01T17:08:59;5.38;83.53
12907;DHT22;6521;50.498;8.474;2023-02-01T17:11:31;5.39;83.90
12907;DHT22;6521;50.498;8.474;2023-02-01T17:14:19;5.38;83.74
12907;DHT22;6521;50.498;8.474;2023-02-01T17:16:52;5.36;84.39
12907;DHT22;6521;50.498;8.474;2023-02-01T17:19:24;5.36;84.49
12907;DHT22;6521;50.498;8.474;2023-02-01T17:21:56;5.31;84.77
12907;DHT22;6521;50.498;8.474;2023-02-01T17:24:30;5.29;85.24
12907;DHT22;6521;50.498;8.474;2023-02-01T17:27:01;5.25;85.60
12907;DHT22;6521;50.498;8.474;2023-02-01T17:29:34;5.18;86.23
12907;DHT22;6521;50.498;8.474;2023-02-01T17:32:04;5.15;86.42
12907;DHT22;6521;50.498;8.474;2023-02-01T17:34:35;5.11;86.82
12907;DHT22;6521;50.498;8.474;2023-02-01T17:37:26;5.09;87.29
12907;DHT22;6521;50.498;8.474;2023-02-01T17:39:57;5.04;87.75
12907;DHT22;6521;50.498;8.474;2023-02-01T17:42:29;4.95;88.05
12907;DHT22;6521;50.498;8.474;2023-02-01T17:45:25;4.89;88.51
12907;DHT22;6521;50.498;8.474;2023-02-01T17:47:57;4.87;88.70
12907;DHT22;6521;50.498;8.474;2023-02-01T17:50:30;4.87;88.67
12907;DHT22;6521;50.498;8.474;2023-02-01T17:53:02;4.89;88.60
12907;DHT22;6521;50.498;8.474;2023-02-01T17:55:39;4.87;88.74
12907;DHT22;6521;50.498;8.474;2023-02-01T17:58:12;4.84;89.03
12907;DHT22;6521;50.498;8.474;2023-02-01T18:00:44;4.84;89.08
12907;DHT22;6521;50.498;8.474;2023-02-01T18:03:20;4.85;89.13
12907;DHT22;6521;50.498;8.474;2023-02-01T18:05:54;4.80;88.98
12907;DHT22;6521;50.498;8.474;2023-02-01T18:08:28;4.80;88.93
12907;DHT22;6521;50.498;8.474;2023-02-01T18:11:00;4.83;88.84
12907;DHT22;6521;50.498;8.474;2023-02-01T18:13:31;4.85;88.60
12907;DHT22;6521;50.498;8.474;2023-02-01T18:16:02;4.84;88.57
12907;DHT22;6521;50.498;8.474;2023-02-01T18:18:34;4.85;88.50
12907;DHT22;6521;50.498;8.474;2023-02-01T18:21:04;4.81;88.71
12907;DHT22;6521;50.498;8.474;2023-02-01T18:23:35;4.84;88.60
12907;DHT22;6521;50.498;8.474;2023-02-01T18:26:09;4.84;88.64
12907;DHT22;6521;50.498;8.474;2023-02-01T18:28:41;4.84;88.70
12907;DHT22;6521;50.498;8.474;2023-02-01T18:31:21;4.88;88.72
12907;DHT22;6521;50.498;8.474;2023-02-01T18:33:54;4.87;88.69
12907;DHT22;6521;50.498;8.474;2023-02-01T18:36:26;4.84;89.03
12907;DHT22;6521;50.498;8.474;2023-02-01T18:38:58;4.88;89.03
12907;DHT22;6521;50.498;8.474;2023-02-01T18:41:28;4.85;88.96
12907;DHT22;6521;50.498;8.474;2023-02-01T18:43:59;4.89;88.78
12907;DHT22;6521;50.498;8.474;2023-02-01T18:46:30;4.87;88.69
12907;DHT22;6521;50.498;8.474;2023-02-01T18:49:01;4.89;88.56
12907;DHT22;6521;50.498;8.474;2023-02-01T18:51:32;4.89;88.52
12907;DHT22;6521;50.498;8.474;2023-02-01T18:54:03;4.87;88.52
12907;DHT22;6521;50.498;8.474;2023-02-01T18:56:33;4.88;88.59
12907;DHT22;6521;50.498;8.474;2023-02-01T18:59:04;4.91;88.52
12907;DHT22;6521;50.498;8.474;2023-02-01T19:01:35;4.91;88.41
12907;DHT22;6521;50.498;8.474;2023-02-01T19:04:06;4.92;88.30
12907;DHT22;6521;50.498;8.474;2023-02-01T19:06:36;4.94;88.33
12907;DHT22;6521;50.498;8.474;2023-02-01T19:09:07;4.97;88.19